Anchorage/Merrill Field, Alaska
Current Conditions -  °F | °C
As of 10:53 PM on Sunday 23 Nov 2014 (Local Time) from PAMR Reporting Station
Broken Clouds Broken Clouds  
Wind Chill: 26°   Ceiling: 10000
Heat Index: 26°   Visibility: 10mi
Dew Point: 22°   Wind: 0mph
Humidity: 84%   Direction: NA
Pressure: 29.58"   Gusts: NA
Location:  61.21°N, 149.85°W
Report Text: PAMR 240753Z 00000KT 10SM BKN100 M03/M06 A2958 RMK AO2 SLP019 T10331056 $
Loading
Personal Weather Stations






























Interactive Weather Map New forecast layout! Learn more

10-Day Weather Forecast

Advertisements
Track Severe Weather on mobile